Aérodrome :
LOGIN :

S'inscrire | Disclaimer

   EN    FR    IT 

 










Légende :    VFR   VFR Marginal   IFR   IFR Intensif   IFR Très Intensif
Visi : 
Plafond : 
>= 8 km
>= 3000ft
5 à 8 km
1000 à 3000 ft
1500m à 5 km
500 à 1000 ft
800 à 1500m
200 à 500 ft
< 800m
< 200 ft
Symboles :   Orages  Brouillard  Fortes neiges  Fortes précipitations  Vent > 20 kt
SIGMETs :   Divers  Orages  Givrage  Turbulence  Onde Orograph.  Cendres Volcan.







- Altitude de l'aérodrome : -11 ft
- Code IATA : AMS


EHAM - Amsterdam Schiphol

DERNIER METAR :
  • 190825Z 01008KT 7000 FEW012 15/12 Q1007 BECMG 8000

METARs EXPIRÉS :
  • 190755Z 02010KT 7000 FEW012 15/12 Q1007 NOSIG
  • 190725Z 01009KT 6000 FEW010 14/11 Q1007 NOSIG
  • 190655Z 02010KT 5000 BR FEW009 13/11 Q1007 NOSIG
  • 190625Z 02007KT 6000 NSC 13/11 Q1007 NOSIG
  • 190555Z 01008KT 6000 NSC 13/11 Q1006 NOSIG

TAF COR TAF EHAM
Valide du 19 à 06h jusqu'au 20 à 12h UTC


190444Z 1906/2012 35008KT 3500 BR NSC
PROB30
TEMPO 1906/1908 BKN004
BECMG 1907/1910 9999 NSW FEW030
PROB30
TEMPO 1913/1917 03015G25KT 5000 SHRA SCT025CB
BECMG 1919/1922 4000 BR BKN005
PROB30 1922/2007 2000 BKN003
BECMG 2007/2010 31008KT 9999 NSW BKN025
Pas de NOTAMs connus pour ce terrain.



MET'MAP, la Météo Aéronautique d'un coup d'oeil ! - Copyright ORBIFLY Décembre 2007 - Disclaimer

ORBIFLY MET'MAP TEAM :

Programmation & Développement : Alexandra Zaïnal
Conception & Développement : Baudouin d'Aumeries
Co-Programmation & Développement : Marc-Olivier Méhu
Soutien technique & logistique : Manuel Goepfert

Contact : metmap@orbifly.com




SOURCES & CREDITS :

   NOAA